Time;durP1;ratioP1;P1;durP2;ratioP2;P2;SDS_P1;SDS_P2;PMS_P1;PMS_P2;Temp;Humidity;BMP_temperature;BMP_pressure;BME280_temperature;BME280_humidity;BME280_pressure;Samples;Min_cycle;Max_cycle;Signal;HPM_P1;HPM_P2
2022/03/21 00:00:53;;;;;;;4.87;3.50;;;;;;;-143.84;39.97;45144.28;5028641;28;20439;-74
2022/03/21 00:03:24;;;;;;;5.53;3.60;;;;;;;-143.84;40.26;45136.66;5028626;28;20439;-74
2022/03/21 00:05:51;;;;;;;6.30;3.80;;;;;;;-143.84;39.75;45138.56;5028633;28;20447;-74
2022/03/21 00:08:22;;;;;;;4.90;3.70;;;;;;;-143.84;39.42;45136.66;5029605;28;20455;-74
2022/03/21 00:10:51;;;;;;;6.03;4.03;;;;;;;-143.84;39.86;45151.91;5032147;28;20478;-74
2022/03/21 00:13:19;;;;;;;7.47;3.40;;;;;;;-143.84;39.98;45163.31;5032389;28;20458;-74
2022/03/21 00:15:47;;;;;;;5.80;3.57;;;;;;;-143.84;39.63;45144.28;5032127;28;20442;-74
2022/03/21 00:18:15;;;;;;;9.73;3.60;;;;;;;-143.84;39.60;45136.66;5032118;28;20441;-74
2022/03/21 00:20:44;;;;;;;5.03;4.30;;;;;;;-143.84;39.81;45151.91;5032442;28;20523;-74
2022/03/21 00:23:11;;;;;;;4.40;3.70;;;;;;;-143.84;39.77;45136.66;5031897;28;20513;-74
2022/03/21 00:25:39;;;;;;;10.50;4.33;;;;;;;-143.84;39.74;45186.16;5031885;28;20438;-74
2022/03/21 00:28:09;;;;;;;5.93;4.00;;;;;;;-143.84;39.63;45163.31;5031915;28;20438;-74
2022/03/21 00:30:38;;;;;;;7.30;4.50;;;;;;;-143.84;39.27;45148.09;5035340;28;20535;-74
2022/03/21 00:33:05;;;;;;;7.20;4.87;;;;;;;-143.84;39.70;45155.69;5051930;28;20446;-74
2022/03/21 00:35:33;;;;;;;4.57;3.80;;;;;;;-143.84;39.49;45142.38;5051889;28;20500;-74
2022/03/21 00:38:00;;;;;;;6.90;4.00;;;;;;;-143.84;39.25;45161.41;5051631;28;20513;-74
2022/03/21 00:40:29;;;;;;;4.30;3.80;;;;;;;-143.84;39.46;45146.19;5051482;28;20465;-74
2022/03/21 00:42:58;;;;;;;4.90;3.77;;;;;;;-143.84;38.86;45132.84;5051613;28;20447;-74
2022/03/21 00:45:27;;;;;;;4.57;4.10;;;;;;;-143.84;39.43;45159.50;5051384;28;20443;-74
2022/03/21 00:47:55;;;;;;;7.67;4.33;;;;;;;-143.84;39.50;45153.81;5051344;28;20512;-74
2022/03/21 00:50:25;;;;;;;4.90;4.47;;;;;;;-143.84;38.98;45161.41;5051559;28;20508;-74
2022/03/21 00:52:53;;;;;;;8.83;5.57;;;;;;;-143.84;39.14;45138.56;5051625;28;20441;-74
2022/03/21 00:55:22;;;;;;;5.10;4.60;;;;;;;-143.84;38.99;45130.94;5051204;28;20526;-74
2022/03/21 00:57:50;;;;;;;5.23;4.70;;;;;;;-143.84;39.18;45148.09;5051281;28;20518;-74
2022/03/21 01:00:19;;;;;;;10.33;5.53;;;;;;;-143.84;38.99;45170.94;5051210;28;20453;-74
2022/03/21 01:02:48;;;;;;;5.30;4.80;;;;;;;-143.84;38.77;45142.38;5051788;28;20441;-74
2022/03/21 01:05:16;;;;;;;6.07;5.47;;;;;;;-143.84;38.72;45144.28;5051565;28;20513;-74
2022/03/21 01:07:44;;;;;;;6.50;5.20;;;;;;;-143.84;38.80;45161.41;5051467;28;21180;-74
2022/03/21 01:10:13;;;;;;;11.30;5.20;;;;;;;-143.84;38.92;45151.91;5051687;28;20544;-74
2022/03/21 01:12:41;;;;;;;7.47;5.60;;;;;;;-143.84;38.64;45167.13;5051127;28;20449;-74
2022/03/21 01:15:09;;;;;;;7.83;6.10;;;;;;;-143.84;38.86;45146.19;5051121;28;20445;-74
2022/03/21 01:17:36;;;;;;;9.30;7.10;;;;;;;-143.84;38.83;45142.38;5051130;28;20472;-74
2022/03/21 01:20:06;;;;;;;7.00;6.23;;;;;;;-143.84;38.41;45169.03;5050533;28;20499;-74
2022/03/21 01:22:33;;;;;;;9.20;6.33;;;;;;;-143.84;38.45;45161.41;5051067;28;20789;-74
2022/03/21 01:25:00;;;;;;;12.20;6.47;;;;;;;-143.84;38.97;45150.00;5051082;28;20438;-74
2022/03/21 01:27:29;;;;;;;7.90;7.10;;;;;;;-143.84;38.81;45163.31;5051289;28;21086;-74
2022/03/21 01:29:57;;;;;;;13.30;8.20;;;;;;;-143.84;38.86;45155.69;5050852;28;21309;-74
2022/03/21 01:32:24;;;;;;;15.23;8.83;;;;;;;-143.84;39.29;45172.84;5050738;28;20492;-74
2022/03/21 01:34:51;;;;;;;10.43;8.23;;;;;;;-143.84;39.35;45178.56;5050687;28;20852;-73
2022/03/21 01:37:19;;;;;;;13.73;8.93;;;;;;;-143.84;39.49;45167.13;5051001;28;20510;-74
2022/03/21 01:39:47;;;;;;;14.27;9.13;;;;;;;-143.84;39.83;45165.22;5050852;28;20987;-74
2022/03/21 01:42:14;;;;;;;12.53;9.47;;;;;;;-143.84;39.89;45180.47;5050457;28;20533;-74
2022/03/21 01:44:41;;;;;;;10.90;8.93;;;;;;;-143.84;40.12;45163.31;5050495;28;20450;-74
2022/03/21 01:47:09;;;;;;;12.30;8.73;;;;;;;-143.84;40.37;45151.91;5050363;28;20506;-74
2022/03/21 01:49:36;;;;;;;11.53;8.83;;;;;;;-143.84;40.46;45146.19;5067816;28;20480;-74
2022/03/21 01:52:05;;;;;;;21.23;9.37;;;;;;;-143.84;40.68;45117.63;5070447;28;20514;-74
2022/03/21 01:57:18;;;;;;;16.73;11.10;;;;;;;-143.84;40.70;45159.50;5070383;28;20435;-74
2022/03/21 01:59:46;;;;;;;15.67;9.97;;;;;;;-143.84;40.46;45165.22;5070009;28;20451;-74
2022/03/21 02:02:13;;;;;;;13.37;10.47;;;;;;;-143.84;40.77;45150.00;5070459;28;20441;-73
2022/03/21 02:04:42;;;;;;;15.50;10.83;;;;;;;-143.84;40.74;45153.81;5070112;28;20433;-74
2022/03/21 02:07:09;;;;;;;11.10;9.73;;;;;;;-143.84;41.00;45142.38;5070372;28;20442;-74
2022/03/21 02:09:39;;;;;;;17.13;10.40;;;;;;;-143.84;41.09;45150.00;5070076;28;20439;-74
2022/03/21 02:12:07;;;;;;;15.40;11.20;;;;;;;-143.84;41.28;45144.28;5069932;28;20473;-74
2022/03/21 02:14:39;;;;;;;16.07;11.10;;;;;;;-143.84;41.58;45155.69;5069720;28;20440;-73
2022/03/21 02:17:06;;;;;;;16.37;10.90;;;;;;;-143.84;41.53;45180.47;5070344;28;20519;-74
2022/03/21 02:19:36;;;;;;;17.87;12.00;;;;;;;-143.84;41.81;45174.75;5070523;28;20439;-74
2022/03/21 02:22:28;;;;;;;19.17;11.77;;;;;;;-143.84;42.30;45165.22;5062283;28;20830;-74
2022/03/21 02:25:08;;;;;;;15.80;11.07;;;;;;;-143.84;42.38;45161.41;5069719;28;20441;-74
2022/03/21 02:27:38;;;;;;;17.70;11.23;;;;;;;-143.84;42.50;45174.75;5069568;28;20510;-73
2022/03/21 02:30:07;;;;;;;14.30;10.30;;;;;;;-143.84;42.45;45167.13;5069336;28;20445;-73
2022/03/21 02:32:36;;;;;;;16.13;10.17;;;;;;;-143.84;42.78;45157.59;5051483;28;20573;-73
2022/03/21 02:35:04;;;;;;;17.67;10.23;;;;;;;-143.84;42.91;45228.06;5069602;28;20449;-73
2022/03/21 02:37:33;;;;;;;16.87;10.63;;;;;;;-143.84;42.62;45176.66;5069318;28;20500;-73
2022/03/21 02:40:01;;;;;;;12.30;10.60;;;;;;;-143.84;42.99;45167.13;5069579;28;21008;-73
2022/03/21 02:42:28;;;;;;;14.50;10.83;;;;;;;-143.84;43.01;45150.00;5069402;28;20514;-73
2022/03/21 02:44:57;;;;;;;14.43;10.47;;;;;;;-143.84;42.84;45193.78;5069564;28;20453;-73
2022/03/21 02:47:24;;;;;;;12.80;10.30;;;;;;;-143.84;42.92;45155.69;5069632;28;20452;-73
2022/03/21 02:49:52;;;;;;;17.90;12.20;;;;;;;-143.84;43.10;45165.22;5069321;28;20485;-73
2022/03/21 02:52:21;;;;;;;14.00;10.80;;;;;;;-143.84;42.94;45186.16;5069290;28;21155;-73
2022/03/21 02:54:48;;;;;;;19.87;9.77;;;;;;;-143.84;42.61;45184.25;5069512;28;20834;-73
2022/03/21 02:57:15;;;;;;;15.47;10.20;;;;;;;-143.84;43.05;45163.31;5069366;28;20762;-73
2022/03/21 02:59:43;;;;;;;18.00;9.90;;;;;;;-143.84;42.88;45169.03;5069653;28;20437;-73
2022/03/21 03:02:11;;;;;;;12.60;9.90;;;;;;;-143.84;42.99;45167.13;5069469;28;20479;-73
2022/03/21 03:04:38;;;;;;;14.57;10.17;;;;;;;-143.84;43.19;45170.94;5068625;28;20479;-73
2022/03/21 03:07:05;;;;;;;10.83;8.77;;;;;;;-143.84;43.04;45180.47;5069054;28;20506;-73
2022/03/21 03:09:33;;;;;;;10.80;9.00;;;;;;;-143.84;43.11;45195.69;5069042;28;20930;-74
2022/03/21 03:12:01;;;;;;;10.00;8.57;;;;;;;-143.84;42.94;45180.47;5068409;28;20600;-74
2022/03/21 03:14:28;;;;;;;12.30;8.10;;;;;;;-143.84;42.36;45165.22;5068458;28;20448;-74
2022/03/21 03:16:56;;;;;;;13.23;8.80;;;;;;;-143.84;42.24;45170.94;5068981;28;20442;-74
2022/03/21 03:19:24;;;;;;;10.17;7.87;;;;;;;-143.84;42.38;45148.09;5069048;28;20960;-74
2022/03/21 03:21:52;;;;;;;13.37;7.60;;;;;;;-143.84;42.20;45151.91;5069102;28;20490;-74
2022/03/21 03:24:23;;;;;;;12.67;9.67;;;;;;;-143.84;42.58;45151.91;5069163;28;20495;-74
2022/03/21 03:26:50;;;;;;;10.50;9.40;;;;;;;-143.84;42.52;45161.41;5068845;28;20975;-74
2022/03/21 03:29:17;;;;;;;10.50;7.77;;;;;;;-143.84;42.82;45169.03;5068759;28;20441;-74
2022/03/21 03:31:45;;;;;;;24.07;9.50;;;;;;;-143.84;42.79;45167.13;5069122;28;20526;-74
2022/03/21 03:34:13;;;;;;;11.93;8.87;;;;;;;-143.84;43.01;45151.91;5068904;28;20437;-74
2022/03/21 03:36:41;;;;;;;19.97;9.40;;;;;;;-143.84;43.25;45148.09;5068925;28;20505;-74
2022/03/21 03:39:08;;;;;;;14.13;10.00;;;;;;;-143.84;43.65;45193.78;5068713;28;20474;-74
2022/03/21 03:41:35;;;;;;;14.27;9.30;;;;;;;-143.84;43.87;45180.47;5068840;28;20443;-74
2022/03/21 03:44:03;;;;;;;15.43;9.33;;;;;;;-143.84;43.87;45153.81;5072780;28;20498;-74
2022/03/21 03:46:30;;;;;;;16.27;9.53;;;;;;;-143.84;44.06;45172.84;5073095;28;20524;-74
2022/03/21 03:48:57;;;;;;;9.53;7.80;;;;;;;-143.84;44.41;45176.66;5072772;28;20908;-74
2022/03/21 03:51:24;;;;;;;13.80;9.17;;;;;;;-143.84;44.13;45155.69;5073050;28;20476;-74
2022/03/21 03:53:52;;;;;;;13.87;9.20;;;;;;;-143.84;44.47;45193.78;5072721;28;20460;-74
2022/03/21 03:56:20;;;;;;;15.83;10.03;;;;;;;-143.84;44.71;45172.84;5072754;28;20452;-74
2022/03/21 03:58:47;;;;;;;17.97;10.90;;;;;;;-143.84;45.10;45163.31;5072864;28;20845;-74
2022/03/21 04:01:14;;;;;;;10.60;9.20;;;;;;;-143.84;45.33;45136.66;5072794;28;20449;-74
2022/03/21 04:03:45;;;;;;;13.13;9.00;;;;;;;-143.84;45.41;45151.91;5072344;28;20510;-74
2022/03/21 04:06:13;;;;;;;13.93;10.10;;;;;;;-143.84;45.76;45157.59;5072371;28;20452;-74
2022/03/21 04:08:40;;;;;;;16.30;9.80;;;;;;;-143.84;45.89;45167.13;5071155;28;20513;-74
2022/03/21 04:11:09;;;;;;;16.60;8.07;;;;;;;-143.84;45.63;45148.09;5052487;28;20481;-74
2022/03/21 04:13:36;;;;;;;12.07;8.50;;;;;;;-143.84;45.61;45167.13;5035084;28;20508;-74
2022/03/21 04:16:03;;;;;;;23.03;9.70;;;;;;;-143.84;46.17;45161.41;5032266;28;20443;-74
2022/03/21 04:18:31;;;;;;;15.87;10.23;;;;;;;-143.84;46.26;45151.91;5032377;28;20445;-74
2022/03/21 04:20:58;;;;;;;11.87;9.93;;;;;;;-143.84;46.68;45161.41;5045249;28;20464;-73
2022/03/21 04:23:25;;;;;;;14.00;10.40;;;;;;;-143.84;46.79;45167.13;5052149;28;20430;-77
2022/03/21 04:25:55;;;;;;;22.53;10.73;;;;;;;-143.84;47.22;45170.94;5052885;28;20500;-77
2022/03/21 04:28:24;;;;;;;16.20;10.67;;;;;;;-143.84;47.77;45144.28;5051684;28;20439;-75
2022/03/21 04:30:51;;;;;;;11.97;9.57;;;;;;;-143.84;47.79;45193.78;5052240;28;20485;-75
2022/03/21 04:33:18;;;;;;;17.63;11.23;;;;;;;-143.84;48.21;45157.59;5051882;28;20528;-75
2022/03/21 04:35:46;;;;;;;19.73;11.17;;;;;;;-143.84;48.60;45212.84;5052061;28;20854;-75
2022/03/21 04:38:14;;;;;;;13.30;10.40;;;;;;;-143.84;47.96;45150.00;5061506;28;20792;-75
2022/03/21 04:40:44;;;;;;;15.00;9.20;;;;;;;-143.84;47.12;45157.59;5055646;28;20538;-75
2022/03/21 04:43:13;;;;;;;21.73;9.60;;;;;;;-143.84;46.76;45146.19;5039452;28;20449;-75
2022/03/21 04:45:42;;;;;;;11.97;9.53;;;;;;;-143.84;46.87;45140.47;5043627;28;20462;-75
2022/03/21 04:48:11;;;;;;;18.13;9.73;;;;;;;-143.84;47.46;45165.22;5041388;28;20550;-74
2022/03/21 04:50:38;;;;;;;14.93;10.70;;;;;;;-143.84;47.71;45140.47;5033914;28;20435;-75
2022/03/21 04:53:06;;;;;;;17.07;10.53;;;;;;;-143.84;48.08;45165.22;5035054;28;20435;-74
2022/03/21 04:55:34;;;;;;;24.57;10.83;;;;;;;-143.84;47.96;45161.41;5040512;28;20476;-75
2022/03/21 04:58:01;;;;;;;17.03;10.97;;;;;;;-143.84;48.31;45176.66;5051578;28;20454;-75
2022/03/21 05:00:29;;;;;;;18.63;11.37;;;;;;;-143.84;48.69;45169.03;5051385;28;20448;-77
2022/03/21 05:02:57;;;;;;;19.30;11.17;;;;;;;-143.84;48.80;45159.50;5051637;28;20445;-75
2022/03/21 05:05:25;;;;;;;22.10;11.10;;;;;;;-143.84;48.76;45176.66;5052544;28;20452;-78
2022/03/21 05:07:54;;;;;;;16.40;11.70;;;;;;;-143.84;47.96;45142.38;5055533;28;20449;-75
2022/03/21 05:10:22;;;;;;;14.17;9.50;;;;;;;-143.84;45.20;45144.28;5038148;28;20956;-75
2022/03/21 05:12:50;;;;;;;14.37;10.27;;;;;;;-143.84;42.39;45127.13;5031599;28;20473;-76
2022/03/21 05:15:18;;;;;;;20.53;10.90;;;;;;;-143.84;41.17;45130.94;5031359;28;20451;-75
2022/03/21 05:17:46;;;;;;;15.27;10.57;;;;;;;-143.84;39.70;45136.66;5030736;28;20998;-74
2022/03/21 05:20:18;;;;;;;13.80;9.80;;;;;;;-143.84;39.38;45159.50;5031198;28;21125;-75
2022/03/21 05:30:57;;;;;;;21.23;10.10;;;;;;;-143.84;38.00;45127.13;5031068;28;20450;-74
2022/03/21 05:31:10;;;;;;;21.93;10.30;;;;;;;-143.84;36.15;45138.56;5030835;28;20477;-76
2022/03/21 05:36:24;;;;;;;19.43;10.70;;;;;;;-143.84;35.21;45081.44;5030559;28;20536;-74
2022/03/21 05:38:51;;;;;;;13.43;9.57;;;;;;;-143.84;34.47;45125.22;5030214;28;20699;-74
2022/03/21 05:41:19;;;;;;;11.57;9.20;;;;;;;-143.84;33.89;45098.56;5030374;28;20596;-75
2022/03/21 05:43:46;;;;;;;13.90;10.53;;;;;;;-143.84;33.80;45119.53;5030271;28;20866;-74
2022/03/21 05:46:14;;;;;;;13.77;9.37;;;;;;;-143.84;33.67;45110.00;5030275;28;20442;-74
2022/03/21 05:48:59;;;;;;;13.50;9.37;;;;;;;-143.84;33.47;45102.38;5030520;28;20494;-75
2022/03/21 05:51:30;;;;;;;15.03;9.47;;;;;;;-143.84;32.99;45119.53;5030211;28;21030;-74
2022/03/21 05:53:59;;;;;;;18.10;9.27;;;;;;;-143.84;32.81;45123.34;5030384;28;20529;-75
2022/03/21 05:56:28;;;;;;;13.40;9.57;;;;;;;-143.84;33.35;45102.38;5030246;28;20435;-75
2022/03/21 05:58:56;;;;;;;13.07;9.27;;;;;;;-143.84;32.98;45098.56;5030375;28;20446;-76
2022/03/21 06:01:25;;;;;;;12.77;8.57;;;;;;;-143.84;32.50;45092.88;5030145;28;20516;-75
2022/03/21 06:03:54;;;;;;;10.50;8.97;;;;;;;-143.84;32.94;45110.00;5029876;28;20485;-74
2022/03/21 06:06:21;;;;;;;11.27;9.43;;;;;;;-143.84;32.01;45090.97;5029913;28;21263;-74
2022/03/21 06:08:51;;;;;;;12.87;8.00;;;;;;;-143.84;32.44;45094.78;5030087;28;20788;-75
2022/03/21 06:11:18;;;;;;;11.40;8.53;;;;;;;-143.84;31.93;45096.66;5029556;28;20462;-74
2022/03/21 06:13:47;;;;;;;18.70;9.00;;;;;;;-143.84;31.75;45071.91;5029833;28;20472;-75
2022/03/21 06:16:15;;;;;;;10.50;8.73;;;;;;;-143.84;31.22;45066.22;5029830;28;20525;-74
2022/03/21 06:18:42;;;;;;;9.50;7.53;;;;;;;-143.84;30.78;45068.13;5029470;28;20446;-74
2022/03/21 06:21:10;;;;;;;13.50;8.37;;;;;;;-143.84;31.57;45081.44;5029673;28;20502;-74
2022/03/21 06:23:37;;;;;;;10.90;8.17;;;;;;;-143.84;30.75;45079.53;5029767;28;20883;-75
2022/03/21 06:26:07;;;;;;;10.90;7.57;;;;;;;-143.84;31.00;45087.16;5029978;28;20444;-75
2022/03/21 06:28:36;;;;;;;11.10;8.23;;;;;;;-143.84;30.84;45090.97;5029426;28;20868;-75
2022/03/21 06:31:04;;;;;;;13.23;7.77;;;;;;;-143.84;30.92;45070.00;5029333;28;20440;-75
2022/03/21 06:33:32;;;;;;;11.40;8.10;;;;;;;-143.84;30.89;45071.91;5029457;28;20468;-75
2022/03/21 06:36:02;;;;;;;31.53;8.20;;;;;;;-143.84;30.57;45075.72;5029429;28;20444;-75
2022/03/21 06:38:30;;;;;;;14.70;7.80;;;;;;;-143.84;30.30;45068.13;5029713;28;21152;-75
2022/03/21 06:40:57;;;;;;;9.80;8.00;;;;;;;-143.84;30.21;45068.13;5029044;28;20449;-75
2022/03/21 06:43:27;;;;;;;9.30;7.50;;;;;;;-143.84;30.87;45083.34;5029331;28;20947;-75
2022/03/21 06:45:55;;;;;;;14.37;9.23;;;;;;;-143.84;30.79;45058.59;5029280;28;20454;-74
2022/03/21 06:48:23;;;;;;;12.20;9.20;;;;;;;-143.84;30.13;45085.25;5028897;28;20488;-74
2022/03/21 06:50:51;;;;;;;10.73;7.63;;;;;;;-143.84;29.96;45052.88;5029353;28;20449;-75
2022/03/21 06:53:19;;;;;;;16.83;8.10;;;;;;;-143.84;29.72;45077.63;5028989;28;20496;-75
2022/03/21 06:55:47;;;;;;;11.90;7.97;;;;;;;-143.84;29.58;45077.63;5029203;28;20468;-75
2022/03/21 06:58:15;;;;;;;12.40;7.00;;;;;;;-143.84;29.64;45081.44;5029157;28;20966;-75
2022/03/21 07:00:45;;;;;;;10.27;8.07;;;;;;;-143.84;29.36;45087.16;5028868;28;20944;-75
2022/03/21 07:03:14;;;;;;;13.40;7.67;;;;;;;-143.84;29.53;45049.06;5029002;28;20458;-75
2022/03/21 07:05:42;;;;;;;14.27;8.13;;;;;;;-143.84;29.70;45070.00;5029199;28;20869;-75
2022/03/21 07:08:10;;;;;;;12.00;7.60;;;;;;;-143.84;29.53;45058.59;5029205;28;20441;-75
2022/03/21 07:10:40;;;;;;;9.50;7.10;;;;;;;-143.84;29.04;45073.81;5028981;28;20445;-75
2022/03/21 07:13:07;;;;;;;10.60;8.07;;;;;;;-143.84;29.16;45081.44;5029096;28;20558;-75
2022/03/21 07:15:35;;;;;;;10.63;6.83;;;;;;;-143.84;29.42;45077.63;5028107;28;21227;-75
2022/03/21 07:18:04;;;;;;;9.10;6.90;;;;;;;-143.84;28.93;45052.88;5032712;28;20468;-75
2022/03/21 07:20:31;;;;;;;9.83;7.53;;;;;;;-143.84;29.16;45062.41;5035279;28;20448;-75
2022/03/21 07:23:00;;;;;;;17.57;7.27;;;;;;;-143.84;29.39;45024.31;5035352;28;20521;-75
2022/03/21 07:25:27;;;;;;;12.53;7.27;;;;;;;-143.84;29.13;45071.91;5035172;28;20897;-75
2022/03/21 07:27:54;;;;;;;12.90;6.33;;;;;;;-143.84;28.93;45066.22;5035340;28;20440;-75
2022/03/21 07:30:22;;;;;;;7.40;6.20;;;;;;;-143.84;28.75;45079.53;5035557;28;20943;-75
2022/03/21 07:32:49;;;;;;;8.93;5.70;;;;;;;-143.84;29.08;45064.31;5035329;28;20554;-75
2022/03/21 07:35:18;;;;;;;8.57;5.90;;;;;;;-143.84;28.80;45054.78;5035304;28;20475;-75
2022/03/21 07:37:48;;;;;;;10.07;6.63;;;;;;;-143.84;28.87;45047.16;5035188;28;20503;-75
2022/03/21 07:40:15;;;;;;;6.70;5.80;;;;;;;-143.84;28.50;45060.50;5035421;28;20442;-75
2022/03/21 07:42:44;;;;;;;6.83;5.00;;;;;;;-143.84;28.42;45066.22;5035396;28;21257;-75
2022/03/21 07:47:59;;;;;;;6.00;5.40;;;;;;;-143.84;27.85;45064.31;5035202;28;20484;-75
2022/03/21 07:50:29;;;;;;;16.93;5.43;;;;;;;-143.84;27.73;45104.28;5035048;28;20481;-75
2022/03/21 07:52:58;;;;;;;8.90;5.13;;;;;;;-143.84;27.57;45068.13;5035133;28;20482;-75
2022/03/21 07:55:25;;;;;;;5.83;5.23;;;;;;;-143.84;27.56;45037.66;5035245;28;20963;-75
2022/03/21 07:57:54;;;;;;;11.70;6.07;;;;;;;-143.84;27.37;45049.06;5034959;28;20515;-75
2022/03/21 08:00:23;;;;;;;5.93;5.27;;;;;;;-143.84;27.24;45071.91;5034878;28;20491;-75
2022/03/21 08:02:51;;;;;;;6.53;5.60;;;;;;;-143.84;26.80;45041.44;5035390;28;20448;-75
2022/03/21 08:05:19;;;;;;;10.10;5.73;;;;;;;-143.84;25.89;45039.53;5034937;28;20439;-75
2022/03/21 08:07:48;;;;;;;5.27;4.77;;;;;;;-143.84;25.82;45047.16;5034973;28;20448;-75
2022/03/21 08:10:18;;;;;;;12.30;5.67;;;;;;;-143.84;26.42;45043.34;5034975;28;20439;-75
2022/03/21 08:12:46;;;;;;;6.60;5.90;;;;;;;-143.84;25.91;45073.81;5034730;28;20477;-75
2022/03/21 08:15:17;;;;;;;8.90;5.53;;;;;;;-143.84;25.96;45056.69;5034692;28;20443;-75
2022/03/21 08:17:55;;;;;;;9.73;5.80;;;;;;;-143.84;25.49;45047.16;5034983;28;20451;-75
2022/03/21 08:20:24;;;;;;;9.07;5.90;;;;;;;-143.84;25.77;45037.66;5035037;28;20469;-75
2022/03/21 08:22:53;;;;;;;14.03;5.57;;;;;;;-143.84;25.53;45052.88;5034803;28;21009;-75
2022/03/21 08:25:21;;;;;;;6.50;5.90;;;;;;;-143.84;24.41;45037.66;5034801;28;20454;-75
2022/03/21 08:27:48;;;;;;;8.20;5.70;;;;;;;-143.84;24.27;45033.84;5034883;28;20524;-75
2022/03/21 08:30:17;;;;;;;7.27;5.70;;;;;;;-143.84;25.32;45047.16;5030544;28;20442;-75
2022/03/21 08:32:44;;;;;;;10.23;6.33;;;;;;;-143.84;24.06;45022.41;5031672;28;20479;-75
2022/03/21 08:35:12;;;;;;;5.60;5.10;;;;;;;-143.84;23.69;45028.13;5031720;28;20457;-75
2022/03/21 08:37:39;;;;;;;7.60;5.10;;;;;;;-143.84;24.09;45054.78;5031492;28;21017;-75
2022/03/21 08:40:10;;;;;;;12.33;5.50;;;;;;;-143.84;23.96;45022.41;5031649;28;20454;-75
2022/03/21 08:42:37;;;;;;;5.70;4.80;;;;;;;-143.84;24.11;45045.25;5031690;28;20520;-75
2022/03/21 08:45:05;;;;;;;9.60;5.67;;;;;;;-143.84;23.85;45037.66;5031368;28;20445;-75
2022/03/21 08:47:33;;;;;;;7.87;5.20;;;;;;;-143.84;23.92;45056.69;5031089;28;20468;-75
2022/03/21 08:50:00;;;;;;;6.40;5.57;;;;;;;-143.84;23.67;45026.22;5031278;28;20516;-75
2022/03/21 08:52:28;;;;;;;7.83;5.07;;;;;;;-143.84;23.28;45039.53;5031327;28;20491;-75
2022/03/21 08:54:56;;;;;;;5.87;5.30;;;;;;;-143.84;23.50;45045.25;5031514;28;20470;-75
2022/03/21 08:57:25;;;;;;;4.87;4.37;;;;;;;-143.84;22.95;45037.66;5031137;28;20782;-75
2022/03/21 08:59:53;;;;;;;4.50;4.10;;;;;;;-143.84;23.27;45041.44;5031205;28;21028;-75
2022/03/21 09:02:21;;;;;;;6.97;5.37;;;;;;;-143.84;23.77;45020.50;5031192;28;20439;-75
2022/03/21 09:04:48;;;;;;;8.33;4.67;;;;;;;-143.84;22.90;45022.41;5030853;28;20962;-75
2022/03/21 09:07:15;;;;;;;6.27;4.37;;;;;;;-143.84;23.07;45037.66;5031302;28;20512;-75
2022/03/21 09:09:43;;;;;;;8.00;4.60;;;;;;;-143.84;22.36;45066.22;5031283;28;20445;-75
2022/03/21 09:12:11;;;;;;;7.57;4.83;;;;;;;-143.84;23.20;45028.13;5030912;28;20453;-75
2022/03/21 09:14:40;;;;;;;8.20;5.10;;;;;;;-143.84;23.41;45035.75;5030994;28;20936;-75
2022/03/21 09:17:07;;;;;;;9.10;5.47;;;;;;;-143.84;23.07;45047.16;5030679;28;20450;-75
2022/03/21 09:19:35;;;;;;;11.20;6.30;;;;;;;-143.84;23.31;45026.22;5030832;28;20550;-75
2022/03/21 09:22:03;;;;;;;7.07;5.07;;;;;;;-143.84;23.12;45039.53;5030853;28;20446;-75
2022/03/21 09:24:30;;;;;;;18.63;5.43;;;;;;;-143.84;23.54;45041.44;5030794;28;20443;-75
2022/03/21 09:26:58;;;;;;;6.70;5.30;;;;;;;-143.84;23.53;45041.44;5030511;28;20445;-75
2022/03/21 09:29:26;;;;;;;7.57;6.33;;;;;;;-143.84;23.91;45026.22;5030822;28;20437;-75
2022/03/21 09:31:54;;;;;;;5.80;5.20;;;;;;;-143.84;23.02;45014.78;5030445;28;20968;-75
2022/03/21 09:34:21;;;;;;;8.20;6.30;;;;;;;-143.84;23.25;45033.84;5030585;28;20540;-75
2022/03/21 09:36:50;;;;;;;11.63;5.63;;;;;;;-143.84;23.09;45033.84;5034389;28;20905;-77
2022/03/21 09:39:18;;;;;;;8.20;6.40;;;;;;;-143.84;23.35;45007.19;5043750;28;20453;-77
2022/03/21 09:41:47;;;;;;;10.77;5.60;;;;;;;-143.84;23.78;45012.88;5042039;28;20429;-76
2022/03/21 09:44:14;;;;;;;8.33;5.70;;;;;;;-143.84;22.80;45031.94;5039664;28;20452;-77
2022/03/21 09:46:44;;;;;;;12.80;6.50;;;;;;;-143.84;23.26;45049.06;5033963;28;20444;-77
2022/03/21 09:49:15;;;;;;;6.60;5.40;;;;;;;-143.84;23.05;45022.41;5034060;28;20480;-77
2022/03/21 09:51:42;;;;;;;7.27;5.47;;;;;;;-143.84;23.98;45092.88;5035529;28;20435;-77
2022/03/21 09:54:11;;;;;;;6.93;5.73;;;;;;;-143.84;24.00;45022.41;5035640;28;20806;-77
2022/03/21 09:56:38;;;;;;;8.77;4.93;;;;;;;-143.84;24.51;45010.97;5031396;28;20527;-75
2022/03/21 09:59:06;;;;;;;5.10;4.50;;;;;;;-143.84;24.35;44988.13;5030085;28;20441;-75
2022/03/21 10:01:36;;;;;;;5.90;5.20;;;;;;;-143.84;24.42;45024.31;5030127;28;20450;-75
2022/03/21 10:04:04;;;;;;;8.07;5.30;;;;;;;-143.84;23.98;45012.88;5030005;28;20574;-75
2022/03/21 10:06:35;;;;;;;10.17;5.50;;;;;;;-143.84;24.20;45041.44;5029698;28;20448;-75
2022/03/21 10:09:11;;;;;;;6.10;4.47;;;;;;;-143.84;23.78;45039.53;5029860;28;20449;-75
2022/03/21 10:11:41;;;;;;;7.47;4.77;;;;;;;-143.84;23.35;45010.97;5029820;28;20448;-75
2022/03/21 10:14:28;;;;;;;8.57;4.87;;;;;;;-143.84;23.75;45018.59;5029713;28;20966;-75
2022/03/21 10:16:58;;;;;;;12.33;5.30;;;;;;;-143.84;23.98;45012.88;5029996;28;20455;-75
2022/03/21 10:19:26;;;;;;;7.10;4.50;;;;;;;-143.84;23.80;45037.66;5029624;28;20461;-75
2022/03/21 10:22:06;;;;;;;14.17;5.73;;;;;;;-143.84;24.48;45026.22;5029541;28;20977;-75
2022/03/21 10:24:38;;;;;;;12.83;4.57;;;;;;;-143.84;24.44;45037.66;5029978;28;20465;-75
2022/03/21 10:27:06;;;;;;;12.20;4.70;;;;;;;-143.84;25.23;45020.50;5029194;28;20503;-75
2022/03/21 10:29:33;;;;;;;10.67;4.97;;;;;;;-143.84;25.74;45014.78;5029426;28;20454;-75
2022/03/21 10:32:01;;;;;;;13.77;5.17;;;;;;;-143.84;25.37;45005.28;5029756;28;20446;-75
2022/03/21 10:34:33;;;;;;;10.50;5.23;;;;;;;-143.84;25.14;45035.75;5030410;28;20496;-75
2022/03/21 10:37:06;;;;;;;10.73;5.80;;;;;;;-143.84;25.24;45028.13;5048850;28;20451;-75
2022/03/21 10:39:35;;;;;;;9.33;5.50;;;;;;;-143.84;26.25;45064.31;5049493;28;20455;-75
2022/03/21 10:42:05;;;;;;;7.00;5.20;;;;;;;-143.84;26.67;45041.44;5048865;28;20522;-75
2022/03/21 10:44:33;;;;;;;8.17;5.33;;;;;;;-143.84;26.29;45041.44;5049466;28;20596;-75
2022/03/21 10:47:03;;;;;;;9.57;5.20;;;;;;;-143.84;26.91;45035.75;5043622;28;20448;-75
2022/03/21 10:50:17;;;;;;;8.00;5.10;;;;;;;-143.84;26.68;45045.25;5048620;28;21025;-75
2022/03/21 10:53:14;;;;;;;9.47;6.20;;;;;;;-143.84;27.72;45031.94;5028542;28;20830;-75
2022/03/21 10:55:43;;;;;;;5.80;4.80;;;;;;;-143.84;26.15;45062.41;5028220;28;20446;-75
2022/03/21 10:58:11;;;;;;;10.17;6.33;;;;;;;-143.84;27.13;45033.84;5027814;28;20445;-75
2022/03/21 11:00:39;;;;;;;7.37;4.77;;;;;;;-143.84;27.02;45033.84;5027509;28;20502;-75
2022/03/21 11:03:09;;;;;;;7.17;4.90;;;;;;;-143.84;27.13;45049.06;5027731;28;20508;-75
2022/03/21 11:05:38;;;;;;;9.03;4.80;;;;;;;-143.84;27.16;45033.84;5027316;28;20496;-75
2022/03/21 11:08:09;;;;;;;8.63;5.40;;;;;;;-143.84;26.94;45056.69;5027347;28;20438;-75
2022/03/21 11:10:37;;;;;;;7.97;5.23;;;;;;;-143.84;26.17;45062.41;5027504;28;20970;-75
2022/03/21 11:13:06;;;;;;;10.03;5.87;;;;;;;-143.84;26.94;45030.03;5027387;28;20478;-75
2022/03/21 11:15:35;;;;;;;16.50;6.47;;;;;;;-143.84;27.28;45052.88;5027484;28;20503;-75
2022/03/21 11:18:03;;;;;;;8.73;5.80;;;;;;;-143.84;27.39;45081.44;5027342;28;20456;-75
2022/03/21 11:20:30;;;;;;;11.30;5.57;;;;;;;-143.84;27.60;45047.16;5027995;28;20452;-75
2022/03/21 11:22:58;;;;;;;6.17;4.70;;;;;;;-143.84;28.09;45050.97;5028739;28;20452;-75
2022/03/21 11:25:31;;;;;;;9.33;4.53;;;;;;;-143.84;28.80;45026.22;5028763;28;20456;-75
2022/03/21 11:28:39;;;;;;;8.60;5.03;;;;;;;-143.84;28.42;45056.69;5028954;28;20452;-75
2022/03/21 11:31:42;;;;;;;8.37;6.40;;;;;;;-143.84;27.67;45064.31;5028592;28;20457;-75
2022/03/21 11:34:27;;;;;;;6.83;5.30;;;;;;;-143.84;26.91;45056.69;5026358;28;20486;-75